sensor_id;sensor_type;location;lat;lon;timestamp;pressure;altitude;pressure_sealevel;temperature;humidity
29815;BME280;16708;50.426;7.664;2023-01-29T00:06:32;1000.41;;;-1.48;100.00
29815;BME280;16708;50.426;7.664;2023-01-29T00:21:08;1000.37;;;-1.67;100.00
29815;BME280;16708;50.426;7.664;2023-01-29T00:35:44;1000.19;;;-2.36;100.00
29815;BME280;16708;50.426;7.664;2023-01-29T00:50:19;1000.05;;;-2.96;100.00
29815;BME280;16708;50.426;7.664;2023-01-29T01:04:56;999.91;;;-3.31;100.00
29815;BME280;16708;50.426;7.664;2023-01-29T01:19:32;999.60;;;-3.62;100.00
29815;BME280;16708;50.426;7.664;2023-01-29T01:34:07;999.58;;;-3.75;100.00
29815;BME280;16708;50.426;7.664;2023-01-29T01:48:45;999.59;;;-3.96;100.00
29815;BME280;16708;50.426;7.664;2023-01-29T02:03:19;999.63;;;-4.04;100.00
29815;BME280;16708;50.426;7.664;2023-01-29T02:17:52;999.87;;;-3.84;100.00
29815;BME280;16708;50.426;7.664;2023-01-29T02:32:30;999.73;;;-3.78;100.00
29815;BME280;16708;50.426;7.664;2023-01-29T02:47:08;999.61;;;-3.88;100.00
29815;BME280;16708;50.426;7.664;2023-01-29T03:01:45;999.60;;;-4.21;100.00
29815;BME280;16708;50.426;7.664;2023-01-29T03:16:21;999.59;;;-4.42;100.00
29815;BME280;16708;50.426;7.664;2023-01-29T03:30:49;999.61;;;-4.63;100.00
29815;BME280;16708;50.426;7.664;2023-01-29T03:45:22;999.80;;;-4.66;100.00
29815;BME280;16708;50.426;7.664;2023-01-29T03:59:58;999.80;;;-4.83;100.00
29815;BME280;16708;50.426;7.664;2023-01-29T04:14:34;1000.05;;;-4.84;100.00
29815;BME280;16708;50.426;7.664;2023-01-29T04:43:46;999.42;;;-4.72;100.00
29815;BME280;16708;50.426;7.664;2023-01-29T04:58:23;999.30;;;-4.73;100.00
29815;BME280;16708;50.426;7.664;2023-01-29T05:12:57;999.63;;;-4.54;100.00
29815;BME280;16708;50.426;7.664;2023-01-29T05:27:32;999.62;;;-4.15;100.00
29815;BME280;16708;50.426;7.664;2023-01-29T05:42:10;999.57;;;-3.75;100.00
29815;BME280;16708;50.426;7.664;2023-01-29T05:56:49;999.57;;;-3.40;100.00
29815;BME280;16708;50.426;7.664;2023-01-29T06:11:27;999.27;;;-3.43;100.00
29815;BME280;16708;50.426;7.664;2023-01-29T06:25:59;999.04;;;-3.30;100.00
29815;BME280;16708;50.426;7.664;2023-01-29T06:40:35;999.46;;;-3.41;100.00
29815;BME280;16708;50.426;7.664;2023-01-29T06:55:11;999.45;;;-3.10;100.00
29815;BME280;16708;50.426;7.664;2023-01-29T07:09:50;999.53;;;-3.38;100.00
29815;BME280;16708;50.426;7.664;2023-01-29T07:24:27;999.64;;;-3.35;100.00
29815;BME280;16708;50.426;7.664;2023-01-29T07:39:04;999.74;;;-3.05;100.00
29815;BME280;16708;50.426;7.664;2023-01-29T07:53:42;999.75;;;-3.03;100.00
29815;BME280;16708;50.426;7.664;2023-01-29T08:08:20;999.94;;;-2.56;100.00
29815;BME280;16708;50.426;7.664;2023-01-29T08:22:51;999.95;;;-2.26;100.00
29815;BME280;16708;50.426;7.664;2023-01-29T08:37:30;999.66;;;-2.25;100.00
29815;BME280;16708;50.426;7.664;2023-01-29T08:52:08;999.87;;;-2.60;100.00
29815;BME280;16708;50.426;7.664;2023-01-29T09:06:46;999.87;;;-2.81;100.00
29815;BME280;16708;50.426;7.664;2023-01-29T09:21:27;1000.04;;;-2.59;100.00
29815;BME280;16708;50.426;7.664;2023-01-29T09:35:57;1000.26;;;-2.41;100.00
29815;BME280;16708;50.426;7.664;2023-01-29T09:50:33;1000.30;;;-1.82;100.00
29815;BME280;16708;50.426;7.664;2023-01-29T10:34:29;999.40;;;-1.05;100.00
29815;BME280;16708;50.426;7.664;2023-01-29T11:03:52;998.90;;;1.06;100.00
29815;BME280;16708;50.426;7.664;2023-01-29T11:18:31;998.70;;;-0.12;100.00
29815;BME280;16708;50.426;7.664;2023-01-29T11:33:09;998.45;;;0.40;100.00
29815;BME280;16708;50.426;7.664;2023-01-29T11:47:47;998.46;;;1.69;100.00
29815;BME280;16708;50.426;7.664;2023-01-29T12:02:25;998.24;;;0.06;100.00
29815;BME280;16708;50.426;7.664;2023-01-29T12:16:57;997.92;;;-0.63;100.00
29815;BME280;16708;50.426;7.664;2023-01-29T12:31:35;997.55;;;3.62;70.09
29815;BME280;16708;50.426;7.664;2023-01-29T12:46:23;997.34;;;3.88;66.64
29815;BME280;16708;50.426;7.664;2023-01-29T12:51:18;997.33;;;4.63;61.07
29815;BME280;16708;50.426;7.664;2023-01-29T12:56:14;997.18;;;4.45;59.86
29815;BME280;16708;50.426;7.664;2023-01-29T13:10:49;997.23;;;4.06;65.13
29815;BME280;16708;50.426;7.664;2023-01-29T13:25:27;997.07;;;5.68;53.45
29815;BME280;16708;50.426;7.664;2023-01-29T13:30:23;997.02;;;7.75;49.21
29815;BME280;16708;50.426;7.664;2023-01-29T13:35:19;996.99;;;8.59;46.06
29815;BME280;16708;50.426;7.664;2023-01-29T13:40:14;996.87;;;9.92;42.84
29815;BME280;16708;50.426;7.664;2023-01-29T13:45:09;996.89;;;7.50;47.51
29815;BME280;16708;50.426;7.664;2023-01-29T13:50:03;996.79;;;8.44;46.46
29815;BME280;16708;50.426;7.664;2023-01-29T13:54:58;996.76;;;9.32;43.77
29815;BME280;16708;50.426;7.664;2023-01-29T13:59:53;996.71;;;9.68;42.93
29815;BME280;16708;50.426;7.664;2023-01-29T14:19:28;996.38;;;7.56;46.85
29815;BME280;16708;50.426;7.664;2023-01-29T14:24:22;996.35;;;7.16;47.42
29815;BME280;16708;50.426;7.664;2023-01-29T14:29:17;996.30;;;7.89;46.96
29815;BME280;16708;50.426;7.664;2023-01-29T14:34:11;996.21;;;6.28;49.05
29815;BME280;16708;50.426;7.664;2023-01-29T14:43:59;996.14;;;6.69;48.86
29815;BME280;16708;50.426;7.664;2023-01-29T14:48:53;996.14;;;5.36;51.53
29815;BME280;16708;50.426;7.664;2023-01-29T14:53:44;995.97;;;3.91;57.16
29815;BME280;16708;50.426;7.664;2023-01-29T14:58:38;995.97;;;3.95;63.74
29815;BME280;16708;50.426;7.664;2023-01-29T15:13:07;995.88;;;3.98;64.25
29815;BME280;16708;50.426;7.664;2023-01-29T15:27:42;995.74;;;3.91;67.00
29815;BME280;16708;50.426;7.664;2023-01-29T15:42:13;995.83;;;0.90;100.00
29815;BME280;16708;50.426;7.664;2023-01-29T15:56:41;995.97;;;0.18;100.00
29815;BME280;16708;50.426;7.664;2023-01-29T16:11:14;996.06;;;-0.33;100.00
29815;BME280;16708;50.426;7.664;2023-01-29T16:25:49;996.06;;;-0.78;100.00
29815;BME280;16708;50.426;7.664;2023-01-29T16:40:24;996.22;;;-0.94;100.00
29815;BME280;16708;50.426;7.664;2023-01-29T16:55:00;996.19;;;-1.27;100.00
29815;BME280;16708;50.426;7.664;2023-01-29T17:09:36;996.31;;;-1.35;100.00
29815;BME280;16708;50.426;7.664;2023-01-29T17:24:13;996.21;;;-1.09;100.00
29815;BME280;16708;50.426;7.664;2023-01-29T17:38:51;996.04;;;-1.25;100.00
29815;BME280;16708;50.426;7.664;2023-01-29T17:53:28;996.08;;;-1.18;100.00
29815;BME280;16708;50.426;7.664;2023-01-29T18:08:05;996.00;;;-1.20;100.00
29815;BME280;16708;50.426;7.664;2023-01-29T18:22:42;995.89;;;-1.52;100.00
29815;BME280;16708;50.426;7.664;2023-01-29T18:37:19;995.76;;;-1.69;100.00
29815;BME280;16708;50.426;7.664;2023-01-29T18:51:56;995.54;;;-1.64;100.00
29815;BME280;16708;50.426;7.664;2023-01-29T19:06:34;995.56;;;-1.52;100.00
29815;BME280;16708;50.426;7.664;2023-01-29T19:21:06;995.44;;;-1.53;100.00
29815;BME280;16708;50.426;7.664;2023-01-29T19:35:41;995.19;;;-1.37;100.00
29815;BME280;16708;50.426;7.664;2023-01-29T19:50:19;994.96;;;-1.42;100.00
29815;BME280;16708;50.426;7.664;2023-01-29T20:04:49;994.77;;;-1.53;100.00
29815;BME280;16708;50.426;7.664;2023-01-29T20:19:25;994.78;;;-1.22;100.00
29815;BME280;16708;50.426;7.664;2023-01-29T20:34:03;994.63;;;-1.27;100.00
29815;BME280;16708;50.426;7.664;2023-01-29T20:48:41;994.62;;;-1.15;100.00
29815;BME280;16708;50.426;7.664;2023-01-29T21:03:19;994.23;;;-1.18;100.00
29815;BME280;16708;50.426;7.664;2023-01-29T21:17:57;993.84;;;-1.13;100.00
29815;BME280;16708;50.426;7.664;2023-01-29T21:32:35;993.49;;;-1.07;100.00
29815;BME280;16708;50.426;7.664;2023-01-29T21:47:05;993.52;;;-0.98;100.00
29815;BME280;16708;50.426;7.664;2023-01-29T22:01:35;993.40;;;-0.96;100.00
29815;BME280;16708;50.426;7.664;2023-01-29T22:16:02;993.14;;;-0.96;100.00
29815;BME280;16708;50.426;7.664;2023-01-29T22:30:40;993.25;;;-0.93;100.00
29815;BME280;16708;50.426;7.664;2023-01-29T22:45:15;993.05;;;-0.88;100.00
29815;BME280;16708;50.426;7.664;2023-01-29T22:59:51;993.00;;;-0.83;100.00
29815;BME280;16708;50.426;7.664;2023-01-29T23:14:29;993.02;;;-0.76;100.00
29815;BME280;16708;50.426;7.664;2023-01-29T23:29:06;993.06;;;-0.69;100.00
29815;BME280;16708;50.426;7.664;2023-01-29T23:43:38;992.70;;;-0.89;100.00
29815;BME280;16708;50.426;7.664;2023-01-29T23:58:14;992.50;;;-0.90;100.00
